sensor_id;sensor_type;location;lat;lon;timestamp;pressure;altitude;pressure_sealevel;temperature;humidity
10518;BME280;5307;42.548;22.968;2022-11-28T00:02:18;94329.97;;;2.61;100.00
10518;BME280;5307;42.548;22.968;2022-11-28T00:04:47;94321.88;;;2.68;100.00
10518;BME280;5307;42.548;22.968;2022-11-28T00:07:15;94326.13;;;2.73;100.00
10518;BME280;5307;42.548;22.968;2022-11-28T00:09:44;94318.78;;;2.73;100.00
10518;BME280;5307;42.548;22.968;2022-11-28T00:12:10;94322.25;;;2.77;100.00
10518;BME280;5307;42.548;22.968;2022-11-28T00:14:37;94314.94;;;2.81;100.00
10518;BME280;5307;42.548;22.968;2022-11-28T00:17:04;94316.09;;;2.84;100.00
10518;BME280;5307;42.548;22.968;2022-11-28T00:19:31;94329.19;;;2.75;100.00
10518;BME280;5307;42.548;22.968;2022-11-28T00:21:57;94319.19;;;2.75;100.00
10518;BME280;5307;42.548;22.968;2022-11-28T00:24:24;94321.09;;;2.64;100.00
10518;BME280;5307;42.548;22.968;2022-11-28T00:26:53;94314.16;;;2.81;100.00
10518;BME280;5307;42.548;22.968;2022-11-28T00:29:20;94316.09;;;2.59;100.00
10518;BME280;5307;42.548;22.968;2022-11-28T00:31:46;94314.94;;;2.74;100.00
10518;BME280;5307;42.548;22.968;2022-11-28T00:34:14;94313.78;;;2.75;100.00
10518;BME280;5307;42.548;22.968;2022-11-28T00:36:42;94309.94;;;2.73;100.00
10518;BME280;5307;42.548;22.968;2022-11-28T00:39:09;94304.53;;;2.76;100.00
10518;BME280;5307;42.548;22.968;2022-11-28T00:41:36;94315.72;;;2.78;100.00
10518;BME280;5307;42.548;22.968;2022-11-28T00:44:05;94307.63;;;2.75;100.00
10518;BME280;5307;42.548;22.968;2022-11-28T00:46:32;94311.47;;;2.74;100.00
10518;BME280;5307;42.548;22.968;2022-11-28T00:48:59;94316.88;;;2.77;100.00
10518;BME280;5307;42.548;22.968;2022-11-28T00:51:27;94315.34;;;2.73;100.00
10518;BME280;5307;42.548;22.968;2022-11-28T00:53:56;94304.16;;;2.49;100.00
10518;BME280;5307;42.548;22.968;2022-11-28T00:56:24;94308.41;;;2.61;100.00
10518;BME280;5307;42.548;22.968;2022-11-28T00:58:51;94307.63;;;2.64;100.00
10518;BME280;5307;42.548;22.968;2022-11-28T01:01:21;94302.59;;;2.52;100.00
10518;BME280;5307;42.548;22.968;2022-11-28T01:03:50;94300.69;;;2.49;100.00
10518;BME280;5307;42.548;22.968;2022-11-28T01:06:21;94309.19;;;2.54;100.00
10518;BME280;5307;42.548;22.968;2022-11-28T01:08:49;94303.78;;;2.61;100.00
10518;BME280;5307;42.548;22.968;2022-11-28T01:11:16;94307.25;;;2.55;100.00
10518;BME280;5307;42.548;22.968;2022-11-28T01:13:43;94298.78;;;2.56;100.00
10518;BME280;5307;42.548;22.968;2022-11-28T01:16:10;94287.59;;;2.47;100.00
10518;BME280;5307;42.548;22.968;2022-11-28T01:18:38;94291.06;;;2.55;100.00
10518;BME280;5307;42.548;22.968;2022-11-28T01:21:06;94293.38;;;2.46;100.00
10518;BME280;5307;42.548;22.968;2022-11-28T01:23:33;94284.50;;;2.34;100.00
10518;BME280;5307;42.548;22.968;2022-11-28T01:26:00;94283.34;;;2.39;100.00
10518;BME280;5307;42.548;22.968;2022-11-28T01:28:27;94282.19;;;2.36;100.00
10518;BME280;5307;42.548;22.968;2022-11-28T01:30:54;94286.81;;;2.32;100.00
10518;BME280;5307;42.548;22.968;2022-11-28T01:33:21;94289.13;;;2.45;100.00
10518;BME280;5307;42.548;22.968;2022-11-28T01:35:57;94287.59;;;2.44;100.00
10518;BME280;5307;42.548;22.968;2022-11-28T01:38:25;94285.69;;;2.55;100.00
10518;BME280;5307;42.548;22.968;2022-11-28T01:40:52;94285.28;;;2.49;100.00
10518;BME280;5307;42.548;22.968;2022-11-28T01:43:19;94284.88;;;2.36;100.00
10518;BME280;5307;42.548;22.968;2022-11-28T01:45:46;94274.13;;;2.44;100.00
10518;BME280;5307;42.548;22.968;2022-11-28T01:48:17;94282.56;;;2.53;100.00
10518;BME280;5307;42.548;22.968;2022-11-28T01:50:45;94283.75;;;2.41;100.00
10518;BME280;5307;42.548;22.968;2022-11-28T01:53:16;94281.81;;;2.52;100.00
10518;BME280;5307;42.548;22.968;2022-11-28T01:55:48;94277.19;;;2.53;100.00
10518;BME280;5307;42.548;22.968;2022-11-28T01:58:17;94276.81;;;2.58;100.00
10518;BME280;5307;42.548;22.968;2022-11-28T02:00:45;94282.22;;;2.58;100.00
10518;BME280;5307;42.548;22.968;2022-11-28T02:03:32;94283.75;;;2.55;100.00
10518;BME280;5307;42.548;22.968;2022-11-28T02:06:00;94273.75;;;2.42;100.00
10518;BME280;5307;42.548;22.968;2022-11-28T02:08:33;94274.91;;;2.41;100.00
10518;BME280;5307;42.548;22.968;2022-11-28T02:11:14;94271.81;;;2.56;100.00
10518;BME280;5307;42.548;22.968;2022-11-28T02:13:50;94275.28;;;2.57;100.00
10518;BME280;5307;42.548;22.968;2022-11-28T02:16:32;94269.50;;;2.33;100.00
10518;BME280;5307;42.548;22.968;2022-11-28T02:19:18;94268.72;;;2.36;100.00
10518;BME280;5307;42.548;22.968;2022-11-28T02:21:58;94273.34;;;2.57;100.00
10518;BME280;5307;42.548;22.968;2022-11-28T02:25:06;94274.50;;;2.60;100.00
10518;BME280;5307;42.548;22.968;2022-11-28T02:27:59;94272.94;;;2.66;100.00
10518;BME280;5307;42.548;22.968;2022-11-28T02:30:32;94279.50;;;2.58;100.00
10518;BME280;5307;42.548;22.968;2022-11-28T02:33:12;94276.44;;;2.56;100.00
10518;BME280;5307;42.548;22.968;2022-11-28T02:35:49;94276.75;;;2.04;100.00
10518;BME280;5307;42.548;22.968;2022-11-28T02:38:23;94264.09;;;2.48;100.00
10518;BME280;5307;42.548;22.968;2022-11-28T02:40:59;94268.72;;;2.58;100.00
10518;BME280;5307;42.548;22.968;2022-11-28T02:43:31;94266.03;;;2.44;100.00
10518;BME280;5307;42.548;22.968;2022-11-28T02:46:06;94264.50;;;2.60;100.00
10518;BME280;5307;42.548;22.968;2022-11-28T02:48:43;94271.44;;;2.68;100.00
10518;BME280;5307;42.548;22.968;2022-11-28T02:51:16;94271.03;;;2.59;100.00
10518;BME280;5307;42.548;22.968;2022-11-28T02:53:45;94272.19;;;2.26;100.00
10518;BME280;5307;42.548;22.968;2022-11-28T02:56:13;94277.59;;;2.41;100.00
10518;BME280;5307;42.548;22.968;2022-11-28T02:58:40;94264.47;;;2.39;100.00
10518;BME280;5307;42.548;22.968;2022-11-28T03:01:15;94269.88;;;2.35;100.00
10518;BME280;5307;42.548;22.968;2022-11-28T03:04:05;94269.09;;;2.28;100.00
10518;BME280;5307;42.548;22.968;2022-11-28T03:06:44;94267.94;;;2.32;100.00
10518;BME280;5307;42.548;22.968;2022-11-28T03:09:37;94270.66;;;2.47;100.00
10518;BME280;5307;42.548;22.968;2022-11-28T03:12:18;94263.72;;;2.49;100.00
10518;BME280;5307;42.548;22.968;2022-11-28T03:14:50;94269.09;;;2.28;100.00
10518;BME280;5307;42.548;22.968;2022-11-28T03:17:23;94270.66;;;2.29;100.00
10518;BME280;5307;42.548;22.968;2022-11-28T03:20:02;94263.72;;;2.28;100.00
10518;BME280;5307;42.548;22.968;2022-11-28T03:22:39;94256.41;;;2.32;100.00
10518;BME280;5307;42.548;22.968;2022-11-28T03:25:16;94265.25;;;2.32;100.00
10518;BME280;5307;42.548;22.968;2022-11-28T03:27:50;94266.03;;;2.29;100.00
10518;BME280;5307;42.548;22.968;2022-11-28T03:30:23;94269.88;;;2.35;100.00
10518;BME280;5307;42.548;22.968;2022-11-28T03:32:54;94265.28;;;2.40;100.00
10518;BME280;5307;42.548;22.968;2022-11-28T03:35:26;94264.09;;;2.33;100.00
10518;BME280;5307;42.548;22.968;2022-11-28T03:37:59;94267.94;;;2.29;100.00
10518;BME280;5307;42.548;22.968;2022-11-28T03:40:30;94261.03;;;2.31;100.00
10518;BME280;5307;42.548;22.968;2022-11-28T03:43:03;94259.09;;;2.43;100.00
10518;BME280;5307;42.548;22.968;2022-11-28T03:45:35;94260.63;;;2.47;100.00
10518;BME280;5307;42.548;22.968;2022-11-28T03:48:07;94259.50;;;2.41;100.00
10518;BME280;5307;42.548;22.968;2022-11-28T03:50:41;94258.72;;;2.48;100.00
10518;BME280;5307;42.548;22.968;2022-11-28T03:53:14;94255.25;;;2.51;100.00
10518;BME280;5307;42.548;22.968;2022-11-28T03:55:48;94251.00;;;2.35;100.00
10518;BME280;5307;42.548;22.968;2022-11-28T03:58:22;94251.41;;;2.48;100.00
10518;BME280;5307;42.548;22.968;2022-11-28T04:00:58;94252.94;;;2.53;100.00
10518;BME280;5307;42.548;22.968;2022-11-28T04:03:35;94259.84;;;2.50;100.00
10518;BME280;5307;42.548;22.968;2022-11-28T04:06:13;94258.72;;;2.41;100.00
10518;BME280;5307;42.548;22.968;2022-11-28T04:08:44;94255.66;;;2.42;100.00
10518;BME280;5307;42.548;22.968;2022-11-28T04:11:17;94259.09;;;2.46;100.00
10518;BME280;5307;42.548;22.968;2022-11-28T04:13:50;94265.28;;;2.40;100.00
10518;BME280;5307;42.548;22.968;2022-11-28T04:16:21;94254.50;;;2.40;100.00
10518;BME280;5307;42.548;22.968;2022-11-28T04:18:56;94256.78;;;2.37;100.00
10518;BME280;5307;42.548;22.968;2022-11-28T04:21:30;94257.94;;;2.47;100.00
10518;BME280;5307;42.548;22.968;2022-11-28T04:24:02;94256.03;;;2.41;100.00
10518;BME280;5307;42.548;22.968;2022-11-28T04:26:33;94264.47;;;2.50;100.00
10518;BME280;5307;42.548;22.968;2022-11-28T04:29:03;94267.16;;;2.35;100.00
10518;BME280;5307;42.548;22.968;2022-11-28T04:31:31;94265.66;;;2.45;100.00
10518;BME280;5307;42.548;22.968;2022-11-28T04:34:03;94248.69;;;2.30;100.00
10518;BME280;5307;42.548;22.968;2022-11-28T04:36:34;94272.19;;;2.37;100.00
10518;BME280;5307;42.548;22.968;2022-11-28T04:39:04;94272.97;;;2.41;100.00
10518;BME280;5307;42.548;22.968;2022-11-28T04:41:36;94272.19;;;2.26;100.00
10518;BME280;5307;42.548;22.968;2022-11-28T04:44:10;94272.94;;;2.30;100.00
10518;BME280;5307;42.548;22.968;2022-11-28T04:46:41;94266.78;;;2.48;100.00
10518;BME280;5307;42.548;22.968;2022-11-28T04:49:10;94264.47;;;2.35;100.00
10518;BME280;5307;42.548;22.968;2022-11-28T04:51:43;94269.88;;;2.32;100.00
10518;BME280;5307;42.548;22.968;2022-11-28T04:54:17;94264.50;;;2.28;100.00
10518;BME280;5307;42.548;22.968;2022-11-28T04:56:51;94267.97;;;2.43;100.00
10518;BME280;5307;42.548;22.968;2022-11-28T04:59:19;94272.56;;;2.14;100.00
10518;BME280;5307;42.548;22.968;2022-11-28T05:01:48;94277.97;;;2.32;100.00
10518;BME280;5307;42.548;22.968;2022-11-28T05:04:15;94275.66;;;2.30;100.00
10518;BME280;5307;42.548;22.968;2022-11-28T05:06:44;94282.19;;;2.19;100.00
10518;BME280;5307;42.548;22.968;2022-11-28T05:09:12;94276.78;;;2.36;100.00
10518;BME280;5307;42.548;22.968;2022-11-28T05:11:39;94275.25;;;2.32;100.00
10518;BME280;5307;42.548;22.968;2022-11-28T05:14:05;94274.47;;;2.24;100.00
10518;BME280;5307;42.548;22.968;2022-11-28T05:16:32;94273.72;;;2.31;100.00
10518;BME280;5307;42.548;22.968;2022-11-28T05:18:59;94276.06;;;2.40;100.00
10518;BME280;5307;42.548;22.968;2022-11-28T05:21:26;94275.25;;;2.21;100.00
10518;BME280;5307;42.548;22.968;2022-11-28T05:23:54;94265.66;;;2.27;100.00
10518;BME280;5307;42.548;22.968;2022-11-28T05:26:21;94267.19;;;2.28;100.00
10518;BME280;5307;42.548;22.968;2022-11-28T05:28:49;94259.88;;;2.32;100.00
10518;BME280;5307;42.548;22.968;2022-11-28T05:31:17;94266.78;;;2.23;100.00
10518;BME280;5307;42.548;22.968;2022-11-28T05:33:44;94262.94;;;2.27;100.00
10518;BME280;5307;42.548;22.968;2022-11-28T05:36:12;94257.94;;;2.33;100.00
10518;BME280;5307;42.548;22.968;2022-11-28T05:38:40;94259.09;;;2.32;100.00
10518;BME280;5307;42.548;22.968;2022-11-28T05:41:09;94261.78;;;2.25;100.00
10518;BME280;5307;42.548;22.968;2022-11-28T05:43:36;94269.09;;;2.17;100.00
10518;BME280;5307;42.548;22.968;2022-11-28T05:46:03;94264.84;;;2.20;100.00
10518;BME280;5307;42.548;22.968;2022-11-28T05:48:31;94271.03;;;2.27;100.00
10518;BME280;5307;42.548;22.968;2022-11-28T05:50:57;94269.09;;;2.31;100.00
10518;BME280;5307;42.548;22.968;2022-11-28T05:53:24;94269.09;;;2.21;100.00
10518;BME280;5307;42.548;22.968;2022-11-28T05:55:51;94263.69;;;2.24;100.00
10518;BME280;5307;42.548;22.968;2022-11-28T05:58:19;94268.28;;;2.09;100.00
10518;BME280;5307;42.548;22.968;2022-11-28T06:00:46;94269.09;;;2.17;100.00
10518;BME280;5307;42.548;22.968;2022-11-28T06:03:13;94262.94;;;2.27;100.00
10518;BME280;5307;42.548;22.968;2022-11-28T06:05:41;94260.63;;;2.33;100.00
10518;BME280;5307;42.548;22.968;2022-11-28T06:08:09;94259.09;;;2.28;100.00
10518;BME280;5307;42.548;22.968;2022-11-28T06:10:36;94261.78;;;2.28;100.00
10518;BME280;5307;42.548;22.968;2022-11-28T06:13:03;94267.56;;;2.30;100.00
10518;BME280;5307;42.548;22.968;2022-11-28T06:15:32;94265.25;;;2.25;100.00
10518;BME280;5307;42.548;22.968;2022-11-28T06:17:59;94256.38;;;2.00;100.00
10518;BME280;5307;42.548;22.968;2022-11-28T06:20:25;94266.00;;;2.01;100.00
10518;BME280;5307;42.548;22.968;2022-11-28T06:22:52;94261.41;;;2.26;100.00
10518;BME280;5307;42.548;22.968;2022-11-28T06:25:19;94263.69;;;2.03;100.00
10518;BME280;5307;42.548;22.968;2022-11-28T06:27:46;94264.44;;;2.00;100.00
10518;BME280;5307;42.548;22.968;2022-11-28T06:30:13;94262.13;;;2.05;100.00
10518;BME280;5307;42.548;22.968;2022-11-28T06:32:41;94267.91;;;2.04;100.00
10518;BME280;5307;42.548;22.968;2022-11-28T06:35:08;94262.50;;;1.97;100.00
10518;BME280;5307;42.548;22.968;2022-11-28T06:37:35;94253.31;;;2.33;100.00
10518;BME280;5307;42.548;22.968;2022-11-28T06:40:03;94248.31;;;2.35;100.00
10518;BME280;5307;42.548;22.968;2022-11-28T06:42:29;94262.19;;;2.59;100.00
10518;BME280;5307;42.548;22.968;2022-11-28T06:44:56;94259.47;;;2.70;100.00
10518;BME280;5307;42.548;22.968;2022-11-28T06:47:23;94254.47;;;2.75;100.00
10518;BME280;5307;42.548;22.968;2022-11-28T06:49:51;94254.06;;;2.80;100.00
10518;BME280;5307;42.548;22.968;2022-11-28T06:52:18;94249.00;;;3.07;100.00
10518;BME280;5307;42.548;22.968;2022-11-28T06:54:45;94245.09;;;3.22;100.00
10518;BME280;5307;42.548;22.968;2022-11-28T06:57:12;94248.97;;;3.25;100.00
10518;BME280;5307;42.548;22.968;2022-11-28T06:59:39;94252.81;;;3.27;100.00
10518;BME280;5307;42.548;22.968;2022-11-28T07:02:06;94249.63;;;3.57;100.00
10518;BME280;5307;42.548;22.968;2022-11-28T07:04:32;94238.63;;;3.93;100.00
10518;BME280;5307;42.548;22.968;2022-11-28T07:07:01;94252.03;;;4.14;100.00
10518;BME280;5307;42.548;22.968;2022-11-28T07:09:28;94245.28;;;3.78;100.00
10518;BME280;5307;42.548;22.968;2022-11-28T07:11:54;94247.25;;;4.36;98.91
10518;BME280;5307;42.548;22.968;2022-11-28T07:14:21;94253.31;;;4.96;97.32
10518;BME280;5307;42.548;22.968;2022-11-28T07:16:48;94252.13;;;5.34;93.09
10518;BME280;5307;42.548;22.968;2022-11-28T07:19:15;94255.56;;;4.60;94.07
10518;BME280;5307;42.548;22.968;2022-11-28T07:21:47;94250.50;;;5.44;91.63
10518;BME280;5307;42.548;22.968;2022-11-28T07:24:15;94253.44;;;5.57;89.25
10518;BME280;5307;42.548;22.968;2022-11-28T07:26:42;94242.31;;;5.82;87.43
10518;BME280;5307;42.548;22.968;2022-11-28T07:29:12;94251.63;;;5.47;86.32
10518;BME280;5307;42.548;22.968;2022-11-28T07:31:39;94253.09;;;5.21;88.75
10518;BME280;5307;42.548;22.968;2022-11-28T07:34:08;94246.75;;;4.97;89.33
10518;BME280;5307;42.548;22.968;2022-11-28T07:36:35;94245.22;;;5.30;89.58
10518;BME280;5307;42.548;22.968;2022-11-28T07:39:04;94241.25;;;5.04;89.86
10518;BME280;5307;42.548;22.968;2022-11-28T07:41:34;94243.53;;;5.09;90.53
10518;BME280;5307;42.548;22.968;2022-11-28T07:44:02;94237.38;;;5.73;89.04
10518;BME280;5307;42.548;22.968;2022-11-28T07:46:30;94239.59;;;5.51;86.95
10518;BME280;5307;42.548;22.968;2022-11-28T07:48:58;94231.97;;;5.39;87.22
10518;BME280;5307;42.548;22.968;2022-11-28T07:51:27;94236.69;;;5.31;90.40
10518;BME280;5307;42.548;22.968;2022-11-28T07:53:54;94230.72;;;5.13;91.57
10518;BME280;5307;42.548;22.968;2022-11-28T07:56:22;94234.44;;;5.26;92.04
10518;BME280;5307;42.548;22.968;2022-11-28T07:58:51;94230.91;;;4.51;92.11
10518;BME280;5307;42.548;22.968;2022-11-28T08:01:19;94230.44;;;4.59;92.86
10518;BME280;5307;42.548;22.968;2022-11-28T08:03:47;94221.53;;;5.03;92.73
10518;BME280;5307;42.548;22.968;2022-11-28T08:06:15;94217.69;;;5.01;87.23
10518;BME280;5307;42.548;22.968;2022-11-28T08:08:43;94213.63;;;5.20;87.19
10518;BME280;5307;42.548;22.968;2022-11-28T08:11:12;94217.47;;;5.22;89.14
10518;BME280;5307;42.548;22.968;2022-11-28T08:13:39;94218.09;;;4.58;86.95
10518;BME280;5307;42.548;22.968;2022-11-28T08:16:09;94215.19;;;5.17;87.81
10518;BME280;5307;42.548;22.968;2022-11-28T08:18:38;94218.41;;;5.05;87.19
10518;BME280;5307;42.548;22.968;2022-11-28T08:21:06;94217.75;;;4.01;88.38
10518;BME280;5307;42.548;22.968;2022-11-28T08:23:34;94218.41;;;4.15;89.39
10518;BME280;5307;42.548;22.968;2022-11-28T08:26:01;94215.25;;;4.28;89.84
10518;BME280;5307;42.548;22.968;2022-11-28T08:28:28;94214.41;;;4.34;90.25
10518;BME280;5307;42.548;22.968;2022-11-28T08:30:56;94213.75;;;4.20;89.16
10518;BME280;5307;42.548;22.968;2022-11-28T08:33:25;94209.19;;;4.13;89.02
10518;BME280;5307;42.548;22.968;2022-11-28T08:35:51;94208.03;;;4.07;90.09
10518;BME280;5307;42.548;22.968;2022-11-28T08:38:18;94209.88;;;4.24;89.27
10518;BME280;5307;42.548;22.968;2022-11-28T08:40:45;94207.28;;;4.10;89.02
10518;BME280;5307;42.548;22.968;2022-11-28T08:43:13;94212.53;;;4.28;88.25
10518;BME280;5307;42.548;22.968;2022-11-28T08:45:40;94208.34;;;4.23;87.45
10518;BME280;5307;42.548;22.968;2022-11-28T08:48:07;94205.88;;;4.39;88.79
10518;BME280;5307;42.548;22.968;2022-11-28T08:50:35;94197.28;;;4.52;90.36
10518;BME280;5307;42.548;22.968;2022-11-28T08:53:02;94199.13;;;4.13;90.87
10518;BME280;5307;42.548;22.968;2022-11-28T08:55:28;94196.53;;;3.99;90.64
10518;BME280;5307;42.548;22.968;2022-11-28T08:57:55;94193.09;;;3.92;88.96
10518;BME280;5307;42.548;22.968;2022-11-28T09:00:22;94198.41;;;4.09;89.37
10518;BME280;5307;42.548;22.968;2022-11-28T09:02:49;94190.00;;;3.97;88.82
10518;BME280;5307;42.548;22.968;2022-11-28T09:05:16;94190.94;;;4.24;89.86
10518;BME280;5307;42.548;22.968;2022-11-28T09:07:44;94187.44;;;4.27;89.66
10518;BME280;5307;42.548;22.968;2022-11-28T09:10:11;94183.28;;;4.15;89.28
10518;BME280;5307;42.548;22.968;2022-11-28T09:12:40;94180.53;;;3.64;89.34
10518;BME280;5307;42.548;22.968;2022-11-28T09:15:08;94184.13;;;4.05;89.83
10518;BME280;5307;42.548;22.968;2022-11-28T09:17:34;94177.84;;;4.19;89.16
10518;BME280;5307;42.548;22.968;2022-11-28T09:20:03;94182.97;;;4.06;88.34
10518;BME280;5307;42.548;22.968;2022-11-28T09:22:30;94167.91;;;4.09;86.65
10518;BME280;5307;42.548;22.968;2022-11-28T09:24:58;94174.53;;;3.97;86.69
10518;BME280;5307;42.548;22.968;2022-11-28T09:27:25;94165.25;;;4.02;87.39
10518;BME280;5307;42.548;22.968;2022-11-28T09:29:52;94176.19;;;3.84;86.38
10518;BME280;5307;42.548;22.968;2022-11-28T09:32:19;94179.19;;;3.93;85.16
10518;BME280;5307;42.548;22.968;2022-11-28T09:34:46;94171.19;;;4.31;85.71
10518;BME280;5307;42.548;22.968;2022-11-28T09:37:12;94172.19;;;4.03;85.77
10518;BME280;5307;42.548;22.968;2022-11-28T09:39:39;94177.00;;;3.74;85.17
10518;BME280;5307;42.548;22.968;2022-11-28T09:42:11;94172.19;;;4.03;85.92
10518;BME280;5307;42.548;22.968;2022-11-28T09:44:42;94164.47;;;4.01;85.20
10518;BME280;5307;42.548;22.968;2022-11-28T09:47:17;94165.34;;;3.87;84.17
10518;BME280;5307;42.548;22.968;2022-11-28T09:49:48;94164.31;;;4.23;84.55
10518;BME280;5307;42.548;22.968;2022-11-28T09:52:30;94156.56;;;4.69;84.90
10518;BME280;5307;42.548;22.968;2022-11-28T09:55:04;94142.81;;;4.53;83.78
10518;BME280;5307;42.548;22.968;2022-11-28T09:57:40;94145.59;;;4.84;83.72
10518;BME280;5307;42.548;22.968;2022-11-28T10:00:12;94142.88;;;4.84;81.91
10518;BME280;5307;42.548;22.968;2022-11-28T10:02:50;94141.81;;;4.74;80.51
10518;BME280;5307;42.548;22.968;2022-11-28T10:05:24;94145.06;;;4.96;81.25
10518;BME280;5307;42.548;22.968;2022-11-28T10:13:57;94128.38;;;5.35;83.41
10518;BME280;5307;42.548;22.968;2022-11-28T10:16:34;94124.31;;;5.47;81.61
10518;BME280;5307;42.548;22.968;2022-11-28T10:19:10;94127.53;;;5.38;81.20
10518;BME280;5307;42.548;22.968;2022-11-28T10:21:41;94130.66;;;5.36;79.79
10518;BME280;5307;42.548;22.968;2022-11-28T10:24:12;94133.84;;;5.28;78.09
10518;BME280;5307;42.548;22.968;2022-11-28T10:26:44;94122.19;;;5.88;79.37
10518;BME280;5307;42.548;22.968;2022-11-28T10:29:23;94124.19;;;5.84;76.08
10518;BME280;5307;42.548;22.968;2022-11-28T10:31:54;94126.84;;;5.30;76.91
10518;BME280;5307;42.548;22.968;2022-11-28T10:34:28;94124.03;;;5.68;79.08
10518;BME280;5307;42.548;22.968;2022-11-28T10:37:00;94116.31;;;5.05;80.59
10518;BME280;5307;42.548;22.968;2022-11-28T10:39:28;94106.03;;;5.81;81.23
10518;BME280;5307;42.548;22.968;2022-11-28T10:42:00;94110.09;;;5.97;80.04
10518;BME280;5307;42.548;22.968;2022-11-28T10:44:52;94103.13;;;6.19;78.26
10518;BME280;5307;42.548;22.968;2022-11-28T10:47:38;94099.75;;;6.58;77.01
10518;BME280;5307;42.548;22.968;2022-11-28T10:50:12;94095.28;;;6.91;76.69
10518;BME280;5307;42.548;22.968;2022-11-28T10:52:43;94095.19;;;5.81;74.26
10518;BME280;5307;42.548;22.968;2022-11-28T10:55:25;94085.78;;;5.62;74.32
10518;BME280;5307;42.548;22.968;2022-11-28T10:58:03;94088.75;;;5.99;75.51
10518;BME280;5307;42.548;22.968;2022-11-28T11:00:35;94081.66;;;5.54;76.41
10518;BME280;5307;42.548;22.968;2022-11-28T11:03:04;94076.13;;;5.61;76.08
10518;BME280;5307;42.548;22.968;2022-11-28T11:05:36;94080.34;;;5.66;76.77
10518;BME280;5307;42.548;22.968;2022-11-28T11:08:10;94066.13;;;6.09;75.73
10518;BME280;5307;42.548;22.968;2022-11-28T11:10:41;94072.84;;;5.47;77.23
10518;BME280;5307;42.548;22.968;2022-11-28T11:13:13;94078.47;;;5.32;78.35
10518;BME280;5307;42.548;22.968;2022-11-28T11:15:43;94071.47;;;5.62;80.78
10518;BME280;5307;42.548;22.968;2022-11-28T11:18:21;94072.22;;;5.66;79.11
10518;BME280;5307;42.548;22.968;2022-11-28T11:20:49;94055.25;;;5.85;77.23
10518;BME280;5307;42.548;22.968;2022-11-28T11:23:17;94052.06;;;5.40;77.39
10518;BME280;5307;42.548;22.968;2022-11-28T11:25:47;94062.22;;;4.71;77.72
10518;BME280;5307;42.548;22.968;2022-11-28T11:28:39;94061.59;;;4.91;79.40
10518;BME280;5307;42.548;22.968;2022-11-28T11:31:17;94062.59;;;5.07;78.86
10518;BME280;5307;42.548;22.968;2022-11-28T11:33:45;94048.75;;;4.68;79.70
10518;BME280;5307;42.548;22.968;2022-11-28T11:36:22;94061.06;;;4.35;80.36
10518;BME280;5307;42.548;22.968;2022-11-28T11:38:49;94054.16;;;4.68;80.00
10518;BME280;5307;42.548;22.968;2022-11-28T11:41:27;94051.16;;;4.59;79.64
10518;BME280;5307;42.548;22.968;2022-11-28T11:43:55;94056.41;;;4.39;80.26
10518;BME280;5307;42.548;22.968;2022-11-28T11:46:23;94044.22;;;4.58;80.84
10518;BME280;5307;42.548;22.968;2022-11-28T11:48:51;94050.59;;;4.74;81.28
10518;BME280;5307;42.548;22.968;2022-11-28T11:51:24;94042.13;;;5.03;81.41
10518;BME280;5307;42.548;22.968;2022-11-28T11:54:02;94054.13;;;4.71;80.26
10518;BME280;5307;42.548;22.968;2022-11-28T11:56:33;94052.09;;;4.45;81.00
10518;BME280;5307;42.548;22.968;2022-11-28T11:59:03;94051.53;;;4.61;80.67
10518;BME280;5307;42.548;22.968;2022-11-28T12:01:34;94049.63;;;4.58;81.85
10518;BME280;5307;42.548;22.968;2022-11-28T12:04:03;94033.13;;;4.83;81.46
10518;BME280;5307;42.548;22.968;2022-11-28T12:06:36;94020.88;;;4.40;81.53
10518;BME280;5307;42.548;22.968;2022-11-28T12:09:13;94047.22;;;4.67;81.66
10518;BME280;5307;42.548;22.968;2022-11-28T12:11:45;94035.09;;;5.09;81.24
10518;BME280;5307;42.548;22.968;2022-11-28T12:14:26;94046.69;;;4.79;81.29
10518;BME280;5307;42.548;22.968;2022-11-28T12:17:06;94041.28;;;4.79;82.13
10518;BME280;5307;42.548;22.968;2022-11-28T12:19:45;94034.53;;;4.60;83.56
10518;BME280;5307;42.548;22.968;2022-11-28T12:22:19;94034.34;;;4.44;83.68
10518;BME280;5307;42.548;22.968;2022-11-28T12:24:58;94029.09;;;4.30;83.73
10518;BME280;5307;42.548;22.968;2022-11-28T12:27:36;94031.44;;;4.62;82.45
10518;BME280;5307;42.548;22.968;2022-11-28T12:30:19;94030.56;;;4.38;83.04
10518;BME280;5307;42.548;22.968;2022-11-28T12:32:57;94031.06;;;4.60;83.03
10518;BME280;5307;42.548;22.968;2022-11-28T12:35:37;94035.41;;;4.54;83.16
10518;BME280;5307;42.548;22.968;2022-11-28T12:38:12;94039.53;;;4.65;82.64
10518;BME280;5307;42.548;22.968;2022-11-28T12:41:00;94033.03;;;4.22;82.84
10518;BME280;5307;42.548;22.968;2022-11-28T12:43:40;94027.94;;;4.61;84.12
10518;BME280;5307;42.548;22.968;2022-11-28T12:46:17;94036.44;;;4.63;83.67
10518;BME280;5307;42.548;22.968;2022-11-28T12:55:26;94051.28;;;4.48;82.91
10518;BME280;5307;42.548;22.968;2022-11-28T12:58:00;94045.84;;;4.52;83.40
10518;BME280;5307;42.548;22.968;2022-11-28T13:00:29;94053.66;;;4.80;82.69
10518;BME280;5307;42.548;22.968;2022-11-28T13:03:09;94046.72;;;4.75;81.42
10518;BME280;5307;42.548;22.968;2022-11-28T13:05:52;94043.72;;;4.70;82.12
10518;BME280;5307;42.548;22.968;2022-11-28T13:08:55;94054.53;;;4.32;80.96
10518;BME280;5307;42.548;22.968;2022-11-28T13:11:39;94056.88;;;4.68;80.83
10518;BME280;5307;42.548;22.968;2022-11-28T13:14:15;94054.97;;;4.65;80.86
10518;BME280;5307;42.548;22.968;2022-11-28T13:16:50;94061.78;;;4.76;81.26
10518;BME280;5307;42.548;22.968;2022-11-28T13:19:28;94062.97;;;4.41;80.19
10518;BME280;5307;42.548;22.968;2022-11-28T13:22:06;94060.16;;;4.52;81.77
10518;BME280;5307;42.548;22.968;2022-11-28T13:24:40;94069.03;;;4.49;80.76
10518;BME280;5307;42.548;22.968;2022-11-28T13:27:15;94068.31;;;4.45;81.82
10518;BME280;5307;42.548;22.968;2022-11-28T13:30:06;94066.72;;;4.51;83.27
10518;BME280;5307;42.548;22.968;2022-11-28T13:32:44;94066.44;;;4.01;85.00
10518;BME280;5307;42.548;22.968;2022-11-28T13:35:12;94075.75;;;3.96;86.93
10518;BME280;5307;42.548;22.968;2022-11-28T13:37:46;94074.16;;;3.99;87.75
10518;BME280;5307;42.548;22.968;2022-11-28T13:40:22;94078.81;;;3.98;88.23